Time;durP1;ratioP1;P1;durP2;ratioP2;P2;SDS_P1;SDS_P2;PMS_P1;PMS_P2;Temp;Humidity;BMP_temperature;BMP_pressure;BME280_temperature;BME280_humidity;BME280_pressure;Samples;Min_cycle;Max_cycle;Signal;HPM_P1;HPM_P2
2021/05/21 00:02:09;;;;;;;3.30;2.93;;;12.40;68.40;;;;;;5048968;28;20618;-85
2021/05/21 00:04:36;;;;;;;2.60;2.40;;;12.50;67.90;;;;;;5048606;28;20637;-84
2021/05/21 00:07:02;;;;;;;2.37;2.20;;;12.50;66.90;;;;;;5048370;28;20638;-84
2021/05/21 00:09:28;;;;;;;2.27;2.07;;;12.50;66.90;;;;;;5048070;28;20626;-85
2021/05/21 00:11:55;;;;;;;2.40;2.20;;;12.40;67.70;;;;;;5048774;28;20626;-85
2021/05/21 00:14:22;;;;;;;2.50;2.30;;;12.10;67.00;;;;;;5049021;28;20718;-85
2021/05/21 00:16:49;;;;;;;2.83;2.63;;;12.20;68.20;;;;;;5048807;28;20665;-85
2021/05/21 00:19:15;;;;;;;2.60;2.40;;;12.10;69.30;;;;;;5048956;28;20621;-85
2021/05/21 00:21:41;;;;;;;2.20;2.10;;;12.10;69.40;;;;;;5049029;28;20633;-85
2021/05/21 00:24:09;;;;;;;2.03;1.93;;;12.20;69.00;;;;;;5049000;28;20751;-85
2021/05/21 00:26:35;;;;;;;2.13;2.03;;;12.40;68.10;;;;;;5048560;28;21340;-85
2021/05/21 00:29:02;;;;;;;2.57;2.37;;;12.40;67.70;;;;;;5049344;28;20606;-85
2021/05/21 00:31:29;;;;;;;2.40;2.20;;;12.60;67.40;;;;;;5048865;28;20630;-85
2021/05/21 00:33:56;;;;;;;2.60;2.40;;;12.70;66.60;;;;;;5048545;28;20658;-84
2021/05/21 00:36:22;;;;;;;2.40;2.30;;;12.70;66.00;;;;;;5047400;28;20649;-85
2021/05/21 00:38:48;;;;;;;2.30;2.10;;;12.70;66.20;;;;;;5042746;28;21263;-86
2021/05/21 00:41:15;;;;;;;2.60;2.40;;;12.80;66.00;;;;;;5047437;28;20657;-84
2021/05/21 00:43:41;;;;;;;2.87;2.67;;;12.80;65.50;;;;;;5050878;28;21157;-85
2021/05/21 00:46:07;;;;;;;2.63;2.43;;;12.70;66.30;;;;;;5052607;28;21058;-85
2021/05/21 00:48:35;;;;;;;2.70;2.23;;;12.80;66.20;;;;;;5052681;28;20618;-85
2021/05/21 00:51:01;;;;;;;2.60;2.40;;;12.60;67.00;;;;;;5053113;28;20664;-85
2021/05/21 00:53:29;;;;;;;2.93;2.20;;;12.40;67.70;;;;;;5053252;28;20606;-85
2021/05/21 00:55:58;;;;;;;2.57;2.37;;;12.30;69.10;;;;;;5052509;28;20767;-85
2021/05/21 00:58:25;;;;;;;2.73;2.53;;;12.30;67.90;;;;;;5052961;28;20729;-85
2021/05/21 01:00:52;;;;;;;2.43;2.23;;;12.50;67.30;;;;;;5052375;28;20725;-84
2021/05/21 01:03:20;;;;;;;2.80;2.60;;;12.60;66.70;;;;;;5053140;28;20606;-84
2021/05/21 01:05:48;;;;;;;4.30;3.07;;;12.30;67.20;;;;;;5048876;28;20638;-84
2021/05/21 01:08:16;;;;;;;2.20;2.00;;;12.40;67.20;;;;;;5048459;28;20610;-84
2021/05/21 01:10:45;;;;;;;2.53;2.33;;;12.30;66.20;;;;;;5034683;28;20614;-84
2021/05/21 01:13:14;;;;;;;2.20;2.10;;;12.40;66.80;;;;;;5050042;28;20622;-84
2021/05/21 01:15:43;;;;;;;2.50;2.07;;;12.60;66.60;;;;;;5051661;28;20656;-84
2021/05/21 01:18:12;;;;;;;2.87;2.67;;;12.60;65.30;;;;;;5052253;28;20618;-84
2021/05/21 01:20:40;;;;;;;3.43;3.00;;;12.20;67.70;;;;;;5052565;28;20625;-84
2021/05/21 01:23:08;;;;;;;2.40;2.20;;;12.10;68.40;;;;;;5052334;28;20622;-84
2021/05/21 01:25:37;;;;;;;2.93;2.73;;;12.20;67.60;;;;;;5051506;28;20671;-84
2021/05/21 01:28:05;;;;;;;3.13;2.73;;;12.50;67.90;;;;;;5052348;28;20621;-84
2021/05/21 01:30:33;;;;;;;3.27;3.03;;;12.40;66.80;;;;;;5051790;28;20687;-84
2021/05/21 01:33:06;;;;;;;2.50;2.30;;;12.40;66.40;;;;;;5051717;28;20610;-84
2021/05/21 01:35:34;;;;;;;2.60;2.47;;;12.40;66.30;;;;;;5051519;28;20682;-84
2021/05/21 01:38:07;;;;;;;2.57;2.37;;;12.30;66.10;;;;;;5051768;28;21119;-85
2021/05/21 01:40:36;;;;;;;3.40;2.93;;;12.40;66.30;;;;;;5052137;28;21194;-84
2021/05/21 01:43:05;;;;;;;2.37;2.17;;;12.50;66.40;;;;;;5051596;28;20672;-84
2021/05/21 01:45:34;;;;;;;2.70;2.50;;;12.40;66.90;;;;;;5051585;28;20633;-84
2021/05/21 01:48:02;;;;;;;2.70;2.50;;;12.50;66.70;;;;;;5051714;28;20614;-84
2021/05/21 01:50:31;;;;;;;3.00;2.80;;;12.40;65.70;;;;;;5051523;28;20626;-85
2021/05/21 01:52:59;;;;;;;3.20;2.90;;;12.40;66.00;;;;;;5046614;28;20618;-85
2021/05/21 01:55:27;;;;;;;2.77;2.63;;;12.40;66.00;;;;;;5047087;28;20623;-84
2021/05/21 01:57:57;;;;;;;3.40;3.10;;;12.40;66.30;;;;;;5048189;28;20636;-84
2021/05/21 02:00:25;;;;;;;2.80;2.47;;;12.50;66.50;;;;;;5048748;28;20660;-84
2021/05/21 02:02:53;;;;;;;2.77;2.57;;;12.50;65.60;;;;;;5051246;28;20631;-84
2021/05/21 02:05:20;;;;;;;2.50;2.30;;;12.50;65.90;;;;;;5051308;28;20683;-84
2021/05/21 02:07:48;;;;;;;5.47;3.00;;;12.40;65.10;;;;;;5053819;28;20618;-84
2021/05/21 02:10:16;;;;;;;2.50;2.37;;;12.30;65.40;;;;;;5052447;28;20626;-83
2021/05/21 02:12:46;;;;;;;2.20;2.10;;;12.30;65.20;;;;;;5051659;28;20661;-84
2021/05/21 02:15:30;;;;;;;2.47;2.27;;;12.30;65.30;;;;;;5050175;28;20632;-84
2021/05/21 02:17:57;;;;;;;2.20;2.00;;;12.20;64.70;;;;;;5044896;28;20645;-84
2021/05/21 02:20:25;;;;;;;2.50;2.33;;;12.00;64.90;;;;;;5051280;28;20649;-85
2021/05/21 02:22:52;;;;;;;2.43;2.33;;;12.10;65.60;;;;;;5051380;28;20680;-84
2021/05/21 02:25:18;;;;;;;2.70;2.50;;;12.30;65.70;;;;;;5050403;28;20614;-84
2021/05/21 02:27:45;;;;;;;2.80;2.60;;;12.20;65.60;;;;;;5051575;28;20605;-84
2021/05/21 02:30:13;;;;;;;2.77;2.57;;;12.10;65.60;;;;;;5050697;28;20610;-84
2021/05/21 02:32:39;;;;;;;3.07;2.80;;;12.20;65.90;;;;;;5048393;28;20610;-84
2021/05/21 02:35:07;;;;;;;2.80;2.60;;;12.10;66.00;;;;;;5049555;28;20660;-84
2021/05/21 02:37:34;;;;;;;2.80;2.60;;;12.30;65.90;;;;;;5049551;28;20658;-84
2021/05/21 02:40:00;;;;;;;3.23;2.53;;;12.20;64.90;;;;;;5050243;28;20998;-84
2021/05/21 02:42:26;;;;;;;2.60;1.93;;;12.40;65.50;;;;;;5051059;28;21007;-84
2021/05/21 02:44:54;;;;;;;2.40;2.17;;;12.40;65.60;;;;;;5049796;28;20622;-84
2021/05/21 02:47:20;;;;;;;2.03;1.83;;;12.40;64.90;;;;;;5050475;28;20619;-84
2021/05/21 02:49:46;;;;;;;1.60;1.50;;;12.40;64.30;;;;;;5050447;28;20605;-84
2021/05/21 02:52:13;;;;;;;1.70;1.60;;;12.30;64.50;;;;;;5050588;28;20626;-84
2021/05/21 02:54:39;;;;;;;2.80;2.03;;;12.40;64.30;;;;;;5050257;28;20664;-84
2021/05/21 02:57:06;;;;;;;1.73;1.63;;;12.40;63.90;;;;;;5050296;28;20653;-84
2021/05/21 02:59:33;;;;;;;2.10;2.00;;;12.40;64.30;;;;;;5050437;28;20610;-84
2021/05/21 03:02:00;;;;;;;2.50;1.70;;;12.40;65.20;;;;;;5049756;28;20660;-85
2021/05/21 03:04:27;;;;;;;2.00;1.87;;;12.50;64.60;;;;;;5049963;28;20196;-84
2021/05/21 03:06:54;;;;;;;2.97;1.77;;;12.40;64.90;;;;;;5049447;28;20622;-84
2021/05/21 03:09:20;;;;;;;1.97;1.73;;;12.40;64.80;;;;;;5050317;28;20598;-84
2021/05/21 03:11:46;;;;;;;1.63;1.53;;;12.50;64.50;;;;;;5049902;28;20640;-84
2021/05/21 03:14:14;;;;;;;4.17;2.07;;;12.50;64.40;;;;;;5050474;28;20724;-84
2021/05/21 03:16:40;;;;;;;1.80;1.70;;;12.40;64.30;;;;;;5049366;28;21084;-84
2021/05/21 03:19:07;;;;;;;2.30;1.50;;;12.30;64.10;;;;;;5050329;28;20654;-85
2021/05/21 03:21:34;;;;;;;1.40;1.30;;;12.40;64.30;;;;;;5049594;28;20671;-84
2021/05/21 03:24:00;;;;;;;3.23;2.30;;;12.40;64.10;;;;;;5050342;28;21179;-84
2021/05/21 03:26:27;;;;;;;2.23;2.13;;;12.40;64.50;;;;;;5042157;28;20649;-84
2021/05/21 03:28:53;;;;;;;2.30;1.83;;;12.30;65.10;;;;;;5050163;28;20652;-84
2021/05/21 03:31:19;;;;;;;1.77;1.67;;;12.20;64.80;;;;;;5049790;28;20645;-84
2021/05/21 03:33:46;;;;;;;2.30;1.93;;;12.20;64.70;;;;;;5050742;28;20633;-84
2021/05/21 03:36:13;;;;;;;2.03;1.93;;;12.00;65.30;;;;;;5057380;28;20658;-84
2021/05/21 03:38:40;;;;;;;2.33;2.13;;;12.20;65.30;;;;;;5050378;28;20622;-85
2021/05/21 03:41:06;;;;;;;1.80;1.70;;;12.00;65.30;;;;;;5050246;28;21276;-84
2021/05/21 03:43:33;;;;;;;1.90;1.80;;;12.00;66.00;;;;;;5049893;28;20652;-85
2021/05/21 03:45:59;;;;;;;3.50;2.80;;;12.10;66.40;;;;;;5049103;28;21175;-84
2021/05/21 03:48:26;;;;;;;3.53;2.77;;;12.00;65.60;;;;;;5050070;28;21022;-84
2021/05/21 03:50:52;;;;;;;2.90;2.33;;;12.00;65.50;;;;;;5050152;28;20726;-84
2021/05/21 03:53:20;;;;;;;3.27;2.27;;;11.90;65.70;;;;;;5049853;28;20701;-84
2021/05/21 03:55:46;;;;;;;2.47;2.17;;;11.70;66.20;;;;;;5049449;28;20742;-84
2021/05/21 03:58:13;;;;;;;2.17;1.97;;;11.70;66.20;;;;;;5050156;28;20741;-84
2021/05/21 04:00:39;;;;;;;3.20;2.13;;;11.80;66.60;;;;;;5049409;28;20627;-84
2021/05/21 04:03:06;;;;;;;4.43;2.63;;;11.90;66.50;;;;;;5050073;28;20664;-84
2021/05/21 04:05:33;;;;;;;1.73;1.63;;;11.70;65.90;;;;;;5049171;28;20626;-85
2021/05/21 04:08:00;;;;;;;2.30;2.10;;;11.80;66.50;;;;;;5048613;28;20192;-84
2021/05/21 04:10:27;;;;;;;2.13;2.00;;;11.80;66.40;;;;;;5049931;28;20626;-84
2021/05/21 04:12:54;;;;;;;2.40;2.23;;;11.80;66.20;;;;;;5049427;28;20658;-84
2021/05/21 04:15:20;;;;;;;1.80;1.70;;;11.80;66.40;;;;;;5049277;28;20725;-84
2021/05/21 04:17:46;;;;;;;1.83;1.73;;;11.80;66.20;;;;;;5049399;28;20697;-84
2021/05/21 04:20:14;;;;;;;1.73;1.52;;;11.80;65.80;;;;;;5053015;28;20626;-84
2021/05/21 04:22:43;;;;;;;2.37;2.17;;;11.80;66.10;;;;;;5053525;28;20203;-84
2021/05/21 04:25:11;;;;;;;1.80;1.70;;;11.90;66.50;;;;;;5052832;28;20644;-85
2021/05/21 04:27:38;;;;;;;2.40;1.73;;;11.80;66.20;;;;;;5053163;28;20606;-85
2021/05/21 04:30:06;;;;;;;1.90;1.80;;;11.80;65.70;;;;;;5054055;28;20984;-84
2021/05/21 04:32:32;;;;;;;3.47;1.87;;;11.80;65.70;;;;;;5053321;28;20618;-84
2021/05/21 04:34:59;;;;;;;2.03;1.87;;;11.90;66.40;;;;;;5052689;28;20618;-85
2021/05/21 04:37:26;;;;;;;1.83;1.73;;;11.90;65.60;;;;;;5052544;28;20660;-85
2021/05/21 04:39:52;;;;;;;2.07;1.97;;;11.90;65.60;;;;;;5045761;28;20787;-85
2021/05/21 04:42:18;;;;;;;3.37;1.97;;;11.80;65.90;;;;;;5052651;28;20636;-85
2021/05/21 04:44:46;;;;;;;2.17;1.97;;;12.00;66.00;;;;;;5053159;28;20630;-85
2021/05/21 04:47:12;;;;;;;1.20;1.20;;;12.00;65.30;;;;;;5053012;28;21258;-85
2021/05/21 04:49:39;;;;;;;1.93;1.80;;;11.90;65.20;;;;;;5053087;28;20610;-85
2021/05/21 04:52:07;;;;;;;2.70;1.90;;;12.10;65.40;;;;;;5052564;28;20626;-85
2021/05/21 04:54:37;;;;;;;2.40;2.20;;;12.20;64.90;;;;;;5052253;28;21190;-85
2021/05/21 04:57:05;;;;;;;2.23;2.07;;;12.30;64.60;;;;;;5052635;28;21202;-85
2021/05/21 04:59:35;;;;;;;1.67;1.57;;;12.40;64.80;;;;;;5052079;28;20614;-85
2021/05/21 05:02:03;;;;;;;6.00;1.60;;;12.30;63.90;;;;;;5053001;28;21244;-86
2021/05/21 05:04:30;;;;;;;2.07;1.97;;;12.30;64.70;;;;;;5065439;28;20653;-86
2021/05/21 05:06:56;;;;;;;1.90;1.80;;;12.40;64.90;;;;;;5053406;28;20610;-86
2021/05/21 05:09:23;;;;;;;4.30;2.43;;;12.50;64.40;;;;;;5051721;28;20613;-85
2021/05/21 05:11:49;;;;;;;2.80;2.40;;;12.60;64.00;;;;;;5052975;28;21264;-86
2021/05/21 05:14:16;;;;;;;2.70;2.50;;;12.60;63.50;;;;;;5052954;28;20633;-85
2021/05/21 05:16:42;;;;;;;2.30;2.13;;;12.70;63.60;;;;;;5052342;28;20661;-85
2021/05/21 05:19:10;;;;;;;2.03;1.93;;;12.70;63.00;;;;;;5052580;28;20621;-86
2021/05/21 05:21:40;;;;;;;1.70;1.60;;;12.80;62.80;;;;;;5052737;28;20657;-86
2021/05/21 05:24:11;;;;;;;2.83;2.63;;;12.80;63.00;;;;;;5052631;28;20625;-84
2021/05/21 05:26:38;;;;;;;1.90;1.80;;;12.70;61.90;;;;;;5052229;28;20626;-85
2021/05/21 05:29:05;;;;;;;1.80;1.70;;;12.90;62.20;;;;;;5051191;28;20606;-86
2021/05/21 05:31:32;;;;;;;1.97;1.87;;;13.00;62.80;;;;;;5049503;28;20680;-86
2021/05/21 05:33:59;;;;;;;6.93;2.30;;;13.20;61.80;;;;;;5052232;28;20621;-86
2021/05/21 05:36:26;;;;;;;1.77;1.67;;;13.30;61.20;;;;;;5053383;28;20703;-86
2021/05/21 05:38:53;;;;;;;2.33;2.13;;;13.10;60.30;;;;;;5051632;28;20630;-85
2021/05/21 05:41:19;;;;;;;2.80;1.90;;;13.10;60.80;;;;;;5051861;28;20660;-86
2021/05/21 05:43:45;;;;;;;2.50;2.30;;;13.20;60.80;;;;;;5044580;28;20645;-85
2021/05/21 05:46:13;;;;;;;2.07;1.90;;;13.30;60.20;;;;;;5050681;28;20618;-86
2021/05/21 05:48:40;;;;;;;1.93;1.73;;;13.50;60.00;;;;;;5050005;28;21211;-85
2021/05/21 05:51:06;;;;;;;2.53;1.90;;;13.60;59.90;;;;;;5051503;28;21080;-85
2021/05/21 05:53:36;;;;;;;1.80;1.70;;;13.50;59.40;;;;;;5045791;28;20637;-85
2021/05/21 05:56:03;;;;;;;2.57;2.37;;;13.60;59.80;;;;;;5050956;28;20646;-85
2021/05/21 05:58:29;;;;;;;2.60;2.20;;;13.60;59.60;;;;;;5051776;28;20656;-86
2021/05/21 06:00:56;;;;;;;2.03;1.80;;;13.60;59.50;;;;;;5051982;28;20626;-86
2021/05/21 06:03:23;;;;;;;2.60;2.33;;;13.70;59.30;;;;;;5051941;28;20614;-86
2021/05/21 06:05:49;;;;;;;2.60;1.77;;;13.90;59.50;;;;;;5051644;28;20634;-86
2021/05/21 06:08:16;;;;;;;1.67;1.57;;;14.10;59.10;;;;;;5050179;28;20645;-86
2021/05/21 06:10:43;;;;;;;2.07;1.40;;;14.20;58.70;;;;;;5051525;28;20634;-86
2021/05/21 06:13:10;;;;;;;1.93;1.63;;;14.20;58.60;;;;;;5052125;28;20622;-86
2021/05/21 06:15:38;;;;;;;1.73;1.47;;;14.20;58.70;;;;;;5052193;28;20714;-86
2021/05/21 06:18:05;;;;;;;1.37;1.27;;;14.10;58.90;;;;;;5050982;28;21178;-86
2021/05/21 06:20:33;;;;;;;1.53;1.43;;;14.30;59.10;;;;;;5051454;28;20619;-86
2021/05/21 06:23:02;;;;;;;1.53;1.43;;;14.40;58.90;;;;;;5050874;28;21516;-86
2021/05/21 06:25:41;;;;;;;2.87;1.77;;;14.50;58.40;;;;;;5051114;28;20710;-86
2021/05/21 06:28:10;;;;;;;1.53;1.43;;;14.70;58.50;;;;;;5051298;28;20618;-85
2021/05/21 06:30:37;;;;;;;1.83;1.60;;;14.70;58.20;;;;;;5052173;28;20616;-87
2021/05/21 06:33:04;;;;;;;2.97;1.97;;;14.80;58.00;;;;;;5062630;28;20623;-86
2021/05/21 06:35:31;;;;;;;2.40;2.20;;;15.00;58.00;;;;;;5051337;28;20626;-86
2021/05/21 06:37:57;;;;;;;2.20;2.10;;;14.90;57.50;;;;;;5051805;28;20639;-86
2021/05/21 06:40:24;;;;;;;2.87;2.13;;;15.00;57.70;;;;;;5051814;28;21205;-86
2021/05/21 06:42:50;;;;;;;4.13;2.90;;;15.00;58.00;;;;;;5051428;28;20623;-86
2021/05/21 06:45:20;;;;;;;2.17;2.03;;;15.00;57.50;;;;;;5050821;28;20641;-86
2021/05/21 06:47:46;;;;;;;1.53;1.43;;;15.20;57.50;;;;;;5050685;28;20610;-86
2021/05/21 06:50:13;;;;;;;2.93;1.30;;;15.00;57.20;;;;;;5051025;28;20628;-87
2021/05/21 06:52:40;;;;;;;1.73;1.40;;;15.10;57.70;;;;;;5050179;28;20688;-85
2021/05/21 06:55:08;;;;;;;2.00;1.90;;;15.20;57.50;;;;;;5050125;28;20624;-86
2021/05/21 06:57:35;;;;;;;1.47;1.37;;;15.20;57.20;;;;;;5050691;28;20705;-86
2021/05/21 07:00:01;;;;;;;3.20;1.87;;;15.30;57.20;;;;;;5050514;28;21203;-86
2021/05/21 07:02:29;;;;;;;1.43;1.20;;;15.20;56.60;;;;;;5051677;28;20636;-85
2021/05/21 07:04:56;;;;;;;2.77;1.30;;;15.00;56.50;;;;;;5050377;28;20619;-87
2021/05/21 07:07:24;;;;;;;1.40;1.30;;;15.20;56.50;;;;;;5051815;28;20660;-86
2021/05/21 07:09:51;;;;;;;3.37;1.67;;;15.10;56.40;;;;;;5051271;28;20671;-86
2021/05/21 07:12:18;;;;;;;2.30;1.73;;;15.30;57.00;;;;;;5050153;28;20629;-86
2021/05/21 07:14:44;;;;;;;2.60;1.30;;;15.10;56.80;;;;;;5051193;28;20612;-87
2021/05/21 07:17:10;;;;;;;1.23;1.20;;;15.30;57.20;;;;;;5050865;28;21025;-86
2021/05/21 07:19:38;;;;;;;1.03;1.03;;;15.10;57.00;;;;;;5050958;28;20640;-86
2021/05/21 07:22:05;;;;;;;1.33;1.23;;;15.30;57.20;;;;;;5050868;28;20675;-86
2021/05/21 07:24:32;;;;;;;1.50;1.40;;;15.50;57.30;;;;;;5030564;28;20628;-86
2021/05/21 07:26:58;;;;;;;1.80;1.70;;;15.30;56.60;;;;;;5050528;28;21082;-86
2021/05/21 07:29:25;;;;;;;2.30;2.10;;;15.40;56.90;;;;;;5050675;28;20976;-86
2021/05/21 07:31:51;;;;;;;2.20;1.20;;;15.20;56.50;;;;;;5051074;28;20632;-88
2021/05/21 07:34:19;;;;;;;1.03;1.03;;;15.00;56.80;;;;;;5050698;28;21543;-85
2021/05/21 07:36:47;;;;;;;1.77;1.43;;;14.90;57.00;;;;;;5050111;28;20698;-86
2021/05/21 07:39:16;;;;;;;1.23;1.23;;;14.80;57.30;;;;;;5048399;28;21013;-84
2021/05/21 07:41:43;;;;;;;1.67;1.57;;;14.90;57.40;;;;;;5043485;28;20638;-85
2021/05/21 07:44:10;;;;;;;1.40;1.30;;;15.00;57.70;;;;;;5050485;28;20631;-85
2021/05/21 07:46:37;;;;;;;1.70;1.60;;;14.80;57.10;;;;;;5049430;28;20661;-85
2021/05/21 07:49:03;;;;;;;2.03;1.63;;;15.00;58.50;;;;;;5050272;28;20612;-86
2021/05/21 07:51:31;;;;;;;1.37;1.07;;;15.20;57.20;;;;;;5049887;28;20642;-85
2021/05/21 07:54:00;;;;;;;1.20;1.20;;;15.20;56.50;;;;;;5051189;28;21006;-85
2021/05/21 07:56:30;;;;;;;1.23;1.13;;;15.30;56.40;;;;;;5053782;28;21014;-86
2021/05/21 07:58:56;;;;;;;1.17;1.07;;;15.30;56.50;;;;;;5054684;28;20644;-86
2021/05/21 08:01:23;;;;;;;5.03;1.27;;;15.50;56.90;;;;;;5055189;28;20625;-85
2021/05/21 08:03:49;;;;;;;1.73;1.30;;;15.40;56.90;;;;;;5054258;28;20628;-85
2021/05/21 08:06:16;;;;;;;3.73;1.07;;;15.30;56.80;;;;;;5054266;28;20640;-86
2021/05/21 08:08:42;;;;;;;0.90;0.90;;;15.60;56.90;;;;;;5054810;28;21211;-85
2021/05/21 08:11:10;;;;;;;2.37;1.50;;;15.60;56.60;;;;;;5053970;28;20622;-85
2021/05/21 08:13:39;;;;;;;1.70;1.60;;;15.30;56.60;;;;;;5053813;28;20625;-86
2021/05/21 08:16:10;;;;;;;1.60;1.50;;;15.40;56.70;;;;;;5053474;28;20621;-86
2021/05/21 08:18:37;;;;;;;1.33;1.23;;;15.70;56.60;;;;;;5053668;28;20620;-85
2021/05/21 08:21:04;;;;;;;1.30;1.20;;;15.80;56.00;;;;;;5053962;28;20647;-86
2021/05/21 08:23:34;;;;;;;1.73;0.97;;;15.60;55.70;;;;;;5054170;28;20720;-86
2021/05/21 08:26:00;;;;;;;4.07;1.50;;;15.80;56.70;;;;;;5053797;28;20622;-86
2021/05/21 08:28:28;;;;;;;1.87;1.20;;;15.70;56.30;;;;;;5054703;28;20666;-86
2021/05/21 08:30:55;;;;;;;1.00;1.00;;;15.80;56.30;;;;;;5054134;28;20629;-85
2021/05/21 08:33:21;;;;;;;1.80;1.30;;;15.90;56.60;;;;;;5054382;28;20714;-87
2021/05/21 08:35:48;;;;;;;2.30;1.20;;;15.70;56.00;;;;;;5053838;28;20721;-87
2021/05/21 08:38:16;;;;;;;1.33;1.23;;;15.70;55.80;;;;;;5053284;28;20642;-86
2021/05/21 08:40:42;;;;;;;2.40;1.40;;;15.60;56.20;;;;;;5054071;28;20630;-86
2021/05/21 08:43:11;;;;;;;2.30;1.10;;;15.80;56.50;;;;;;5053439;28;21235;-86
2021/05/21 08:45:40;;;;;;;1.80;1.53;;;15.60;56.20;;;;;;5053036;28;20624;-85
2021/05/21 08:48:13;;;;;;;1.10;1.10;;;15.50;56.20;;;;;;5052999;28;20658;-86
2021/05/21 08:50:42;;;;;;;1.30;1.20;;;15.50;57.80;;;;;;5053676;28;20626;-83
2021/05/21 08:53:09;;;;;;;3.47;1.20;;;15.30;57.20;;;;;;5053357;28;20724;-87
2021/05/21 08:55:36;;;;;;;2.57;1.43;;;15.30;57.10;;;;;;5052972;28;20616;-86
2021/05/21 08:58:03;;;;;;;2.30;0.90;;;15.30;57.30;;;;;;5052522;28;21345;-86
2021/05/21 09:00:30;;;;;;;1.67;1.30;;;15.10;56.80;;;;;;5053350;28;21197;-86
2021/05/21 09:03:15;;;;;;;3.80;0.80;;;15.20;56.60;;;;;;5054128;28;20622;-86
2021/05/21 09:05:42;;;;;;;1.37;1.27;;;15.20;56.60;;;;;;5052543;28;20663;-85
2021/05/21 09:08:08;;;;;;;7.43;1.10;;;15.20;56.70;;;;;;5053617;28;20602;-85
2021/05/21 09:10:46;;;;;;;1.23;1.00;;;15.20;56.40;;;;;;5053221;28;20614;-87
2021/05/21 09:13:16;;;;;;;1.27;1.00;;;15.10;56.30;;;;;;5052499;28;20681;-86
2021/05/21 09:15:43;;;;;;;2.40;1.10;;;15.30;56.70;;;;;;5052635;28;20680;-86
2021/05/21 09:18:10;;;;;;;1.00;0.90;;;15.30;56.80;;;;;;5052999;28;20756;-86
2021/05/21 09:20:39;;;;;;;0.67;0.50;;;15.20;56.30;;;;;;5052935;28;20624;-85
2021/05/21 09:23:08;;;;;;;0.90;0.90;;;15.20;56.70;;;;;;5052519;28;21035;-84
2021/05/21 09:25:45;;;;;;;0.97;0.70;;;15.00;57.00;;;;;;5051836;28;20635;-85
2021/05/21 09:28:34;;;;;;;1.70;1.20;;;15.20;57.10;;;;;;5052509;28;21177;-84
2021/05/21 09:31:11;;;;;;;0.80;0.80;;;15.30;57.20;;;;;;5039312;28;20748;-85
2021/05/21 09:33:40;;;;;;;3.50;0.97;;;15.30;57.10;;;;;;5052617;28;20966;-84
2021/05/21 09:36:07;;;;;;;1.20;1.10;;;15.40;57.00;;;;;;5051205;28;20625;-85
2021/05/21 09:38:44;;;;;;;2.33;1.23;;;15.20;57.40;;;;;;5052017;28;20676;-84
2021/05/21 09:41:11;;;;;;;0.80;0.80;;;15.10;56.70;;;;;;5052014;28;20628;-84
2021/05/21 09:43:39;;;;;;;1.13;0.93;;;15.20;57.00;;;;;;5051940;28;20661;-86
2021/05/21 09:46:11;;;;;;;0.70;0.70;;;15.30;57.10;;;;;;5052131;28;20640;-85
2021/05/21 09:48:39;;;;;;;2.10;1.10;;;15.40;57.50;;;;;;5051945;28;20610;-83
2021/05/21 09:51:07;;;;;;;0.70;0.70;;;15.30;57.00;;;;;;5051876;28;20641;-86
2021/05/21 09:53:34;;;;;;;4.40;1.30;;;15.20;57.20;;;;;;5051346;28;21232;-85
2021/05/21 09:56:01;;;;;;;1.50;1.33;;;15.20;57.30;;;;;;5051251;28;20628;-86
2021/05/21 09:58:30;;;;;;;1.67;1.40;;;15.30;57.60;;;;;;5050312;28;20620;-86
2021/05/21 10:01:07;;;;;;;0.77;0.73;;;15.10;57.00;;;;;;5051084;28;20621;-86
2021/05/21 10:03:34;;;;;;;1.30;0.90;;;15.30;57.60;;;;;;5051473;28;20613;-86
2021/05/21 10:06:02;;;;;;;0.60;0.60;;;15.20;56.70;;;;;;5038287;28;20668;-85
2021/05/21 10:08:30;;;;;;;1.33;0.80;;;15.10;56.90;;;;;;5052189;28;20704;-85
2021/05/21 10:10:56;;;;;;;2.20;0.87;;;15.00;57.30;;;;;;5051647;28;21177;-85
2021/05/21 10:13:23;;;;;;;1.90;1.10;;;14.90;57.50;;;;;;5050991;28;20790;-84
2021/05/21 10:15:51;;;;;;;0.63;0.63;;;15.00;57.90;;;;;;5050680;28;20238;-83
2021/05/21 10:18:18;;;;;;;0.93;0.90;;;15.10;57.40;;;;;;5051329;28;20700;-86
2021/05/21 10:20:45;;;;;;;1.43;1.00;;;15.10;57.50;;;;;;5051349;28;20627;-88
2021/05/21 10:23:17;;;;;;;1.33;1.20;;;15.20;57.10;;;;;;5051434;28;20776;-85
2021/05/21 10:25:45;;;;;;;0.93;0.70;;;15.30;57.60;;;;;;5050948;28;20625;-86
2021/05/21 10:28:13;;;;;;;1.30;1.20;;;15.40;57.40;;;;;;5051419;28;21160;-84
2021/05/21 10:30:41;;;;;;;4.57;1.10;;;15.50;57.60;;;;;;5051684;28;20610;-87
2021/05/21 10:33:15;;;;;;;1.03;0.70;;;15.50;57.80;;;;;;5052175;28;20638;-87
2021/05/21 10:35:41;;;;;;;2.60;0.90;;;15.60;57.90;;;;;;5051123;28;20612;-86
2021/05/21 10:38:20;;;;;;;0.77;0.77;;;15.50;58.00;;;;;;5051368;28;20663;-86
2021/05/21 10:41:13;;;;;;;2.80;1.00;;;15.50;57.80;;;;;;5050438;28;20624;-85
2021/05/21 10:43:51;;;;;;;2.47;1.30;;;15.40;58.20;;;;;;5052000;28;20687;-83
2021/05/21 10:46:18;;;;;;;1.00;0.80;;;15.70;58.80;;;;;;5051680;28;20717;-86
2021/05/21 10:48:56;;;;;;;2.10;0.77;;;15.90;58.50;;;;;;5052097;28;20613;-86
2021/05/21 10:51:23;;;;;;;0.70;0.70;;;15.90;58.30;;;;;;5052371;28;20652;-85
2021/05/21 10:54:40;;;;;;;1.20;0.80;;;15.80;58.50;;;;;;5051963;28;20626;-87
2021/05/21 10:57:12;;;;;;;1.77;0.80;;;15.70;57.80;;;;;;5030572;28;21051;-85
2021/05/21 10:59:43;;;;;;;1.80;0.93;;;15.70;57.90;;;;;;5051104;28;21271;-87
2021/05/21 11:02:12;;;;;;;0.90;0.80;;;15.80;57.80;;;;;;5050984;28;20629;-86
2021/05/21 11:04:38;;;;;;;1.03;0.63;;;15.80;57.70;;;;;;5050913;28;20644;-84
2021/05/21 11:07:06;;;;;;;1.43;1.33;;;15.80;57.90;;;;;;5051875;28;21196;-85
2021/05/21 11:09:43;;;;;;;1.00;0.77;;;16.10;58.10;;;;;;5051564;28;21038;-85
2021/05/21 11:12:16;;;;;;;1.30;1.20;;;16.10;57.90;;;;;;5052506;28;21005;-87
2021/05/21 11:14:44;;;;;;;1.10;0.73;;;16.00;58.20;;;;;;5050003;28;21305;-85
2021/05/21 11:17:15;;;;;;;2.90;1.10;;;16.00;58.50;;;;;;5043534;28;20666;-85
2021/05/21 11:19:53;;;;;;;1.10;1.00;;;16.10;58.60;;;;;;5050274;28;20622;-84
2021/05/21 11:22:29;;;;;;;0.97;0.97;;;15.80;58.50;;;;;;5050162;28;20699;-85
2021/05/21 11:24:59;;;;;;;0.90;0.80;;;16.10;58.60;;;;;;5049712;28;20667;-85
2021/05/21 11:27:28;;;;;;;0.80;0.80;;;16.40;58.40;;;;;;5050653;28;21032;-83
2021/05/21 11:29:55;;;;;;;1.30;1.20;;;16.30;58.30;;;;;;5050216;28;20707;-86
2021/05/21 11:32:24;;;;;;;0.80;0.80;;;16.20;57.80;;;;;;5051018;28;20614;-83
2021/05/21 11:34:51;;;;;;;2.00;0.80;;;16.30;57.50;;;;;;5048046;28;20687;-83
2021/05/21 11:37:21;;;;;;;0.90;0.63;;;16.30;57.50;;;;;;5050989;28;20687;-83
2021/05/21 11:39:52;;;;;;;0.80;0.80;;;16.40;57.70;;;;;;5050009;28;20610;-85
2021/05/21 11:42:20;;;;;;;0.97;0.83;;;16.60;56.90;;;;;;5050272;28;20672;-85
2021/05/21 11:44:49;;;;;;;1.00;0.70;;;16.60;56.90;;;;;;5049745;28;20606;-85
2021/05/21 11:47:23;;;;;;;0.43;0.43;;;16.80;56.80;;;;;;5049462;28;21170;-86
2021/05/21 11:49:50;;;;;;;0.97;0.80;;;16.80;56.50;;;;;;5050198;28;21182;-86
2021/05/21 11:52:17;;;;;;;1.37;0.70;;;16.70;55.50;;;;;;5050113;28;20619;-82
2021/05/21 11:54:43;;;;;;;1.37;0.90;;;16.20;56.00;;;;;;5048453;28;20630;-85
2021/05/21 11:57:16;;;;;;;1.07;0.70;;;16.30;56.90;;;;;;5049154;28;20708;-84
2021/05/21 11:59:43;;;;;;;0.80;0.70;;;16.50;56.30;;;;;;5050371;28;20827;-85
2021/05/21 12:02:13;;;;;;;1.43;0.97;;;16.80;55.90;;;;;;5051002;28;20981;-86
2021/05/21 12:04:40;;;;;;;0.97;0.97;;;16.70;55.50;;;;;;5049923;28;20984;-84
2021/05/21 12:07:15;;;;;;;2.33;0.60;;;16.60;55.50;;;;;;5050226;28;21191;-86
2021/05/21 12:09:52;;;;;;;0.80;0.80;;;16.40;55.60;;;;;;5050329;28;20627;-85
2021/05/21 12:12:21;;;;;;;0.93;0.73;;;16.50;55.90;;;;;;5050097;28;21262;-85
2021/05/21 12:14:48;;;;;;;1.97;0.80;;;16.60;55.60;;;;;;5050165;28;20645;-85
2021/05/21 12:17:15;;;;;;;1.60;1.00;;;16.70;54.80;;;;;;5049769;28;20646;-85
2021/05/21 12:19:42;;;;;;;1.10;0.80;;;17.20;55.00;;;;;;5050935;28;20620;-85
2021/05/21 12:22:09;;;;;;;0.70;0.70;;;17.20;53.70;;;;;;5051851;28;20618;-85
2021/05/21 12:24:41;;;;;;;0.83;0.70;;;16.90;54.80;;;;;;5050756;28;20618;-86
2021/05/21 12:27:07;;;;;;;1.47;0.80;;;16.80;54.00;;;;;;5049327;28;20614;-85
2021/05/21 12:29:34;;;;;;;1.70;0.60;;;16.70;54.10;;;;;;5049890;28;20618;-87
2021/05/21 12:32:02;;;;;;;2.53;0.90;;;16.50;54.00;;;;;;5050571;28;21178;-85
2021/05/21 12:34:30;;;;;;;0.80;0.80;;;16.60;53.80;;;;;;5050497;28;21162;-86
2021/05/21 12:36:58;;;;;;;2.13;0.73;;;16.60;53.30;;;;;;5042923;28;20658;-87
2021/05/21 12:39:31;;;;;;;0.60;0.60;;;16.70;54.20;;;;;;5049807;28;20630;-86
2021/05/21 12:41:58;;;;;;;0.77;0.77;;;16.60;53.50;;;;;;5054018;28;20990;-86
2021/05/21 12:44:24;;;;;;;0.70;0.70;;;16.60;53.90;;;;;;5053215;28;20637;-86
2021/05/21 12:46:54;;;;;;;2.30;0.80;;;16.70;53.50;;;;;;5053184;28;20707;-85
2021/05/21 12:49:25;;;;;;;1.07;0.97;;;16.60;53.20;;;;;;5052659;28;20621;-85
2021/05/21 12:51:55;;;;;;;0.70;0.70;;;16.70;54.10;;;;;;5052380;28;20633;-84
2021/05/21 12:54:24;;;;;;;1.33;0.90;;;16.80;53.90;;;;;;5052951;28;20687;-86